sensor_id;sensor_type;location;lat;lon;timestamp;P1;durP1;ratioP1;P2;durP2;ratioP2
59649;SDS011;46162;57.568;25.814;2023-01-29T00:00:16;11.30;;;4.40;;
59649;SDS011;46162;57.568;25.814;2023-01-29T00:02:47;9.57;;;4.63;;
59649;SDS011;46162;57.568;25.814;2023-01-29T00:05:15;9.98;;;3.97;;
59649;SDS011;46162;57.568;25.814;2023-01-29T00:07:53;8.48;;;4.13;;
59649;SDS011;46162;57.568;25.814;2023-01-29T00:10:23;9.52;;;3.97;;
59649;SDS011;46162;57.568;25.814;2023-01-29T00:12:52;8.23;;;4.20;;
59649;SDS011;46162;57.568;25.814;2023-01-29T00:15:20;10.35;;;4.72;;
59649;SDS011;46162;57.568;25.814;2023-01-29T00:17:50;9.43;;;4.70;;
59649;SDS011;46162;57.568;25.814;2023-01-29T00:20:19;8.65;;;4.28;;
59649;SDS011;46162;57.568;25.814;2023-01-29T00:22:47;10.02;;;4.45;;
59649;SDS011;46162;57.568;25.814;2023-01-29T00:25:16;8.85;;;4.38;;
59649;SDS011;46162;57.568;25.814;2023-01-29T00:27:45;8.38;;;4.32;;
59649;SDS011;46162;57.568;25.814;2023-01-29T00:30:13;9.98;;;4.32;;
59649;SDS011;46162;57.568;25.814;2023-01-29T00:32:45;11.75;;;4.13;;
59649;SDS011;46162;57.568;25.814;2023-01-29T00:35:15;9.30;;;4.30;;
59649;SDS011;46162;57.568;25.814;2023-01-29T00:37:45;7.65;;;4.00;;
59649;SDS011;46162;57.568;25.814;2023-01-29T00:40:13;12.20;;;5.25;;
59649;SDS011;46162;57.568;25.814;2023-01-29T00:42:44;8.30;;;4.70;;
59649;SDS011;46162;57.568;25.814;2023-01-29T00:45:30;9.70;;;4.80;;
59649;SDS011;46162;57.568;25.814;2023-01-29T00:47:59;9.98;;;4.75;;
59649;SDS011;46162;57.568;25.814;2023-01-29T00:50:29;8.82;;;3.92;;
59649;SDS011;46162;57.568;25.814;2023-01-29T00:52:58;11.10;;;5.00;;
59649;SDS011;46162;57.568;25.814;2023-01-29T00:55:27;9.40;;;5.10;;
59649;SDS011;46162;57.568;25.814;2023-01-29T00:57:55;8.60;;;4.30;;
59649;SDS011;46162;57.568;25.814;2023-01-29T01:00:24;8.50;;;4.43;;
59649;SDS011;46162;57.568;25.814;2023-01-29T01:02:53;7.18;;;3.65;;
59649;SDS011;46162;57.568;25.814;2023-01-29T01:05:34;10.23;;;4.70;;
59649;SDS011;46162;57.568;25.814;2023-01-29T01:08:05;8.25;;;4.32;;
59649;SDS011;46162;57.568;25.814;2023-01-29T01:10:59;8.35;;;4.32;;
59649;SDS011;46162;57.568;25.814;2023-01-29T01:13:28;8.90;;;4.13;;
59649;SDS011;46162;57.568;25.814;2023-01-29T01:15:58;8.00;;;3.87;;
59649;SDS011;46162;57.568;25.814;2023-01-29T01:18:28;7.80;;;4.55;;
59649;SDS011;46162;57.568;25.814;2023-01-29T01:20:58;12.18;;;5.43;;
59649;SDS011;46162;57.568;25.814;2023-01-29T01:23:27;10.60;;;4.85;;
59649;SDS011;46162;57.568;25.814;2023-01-29T01:25:56;8.90;;;5.00;;
59649;SDS011;46162;57.568;25.814;2023-01-29T01:28:25;10.90;;;5.00;;
59649;SDS011;46162;57.568;25.814;2023-01-29T01:30:53;10.88;;;4.93;;
59649;SDS011;46162;57.568;25.814;2023-01-29T01:33:22;10.05;;;4.97;;
59649;SDS011;46162;57.568;25.814;2023-01-29T01:35:51;10.18;;;4.95;;
59649;SDS011;46162;57.568;25.814;2023-01-29T01:38:21;10.20;;;5.68;;
59649;SDS011;46162;57.568;25.814;2023-01-29T01:40:49;9.07;;;5.28;;
59649;SDS011;46162;57.568;25.814;2023-01-29T01:43:18;9.95;;;4.85;;
59649;SDS011;46162;57.568;25.814;2023-01-29T01:45:47;11.75;;;4.82;;
59649;SDS011;46162;57.568;25.814;2023-01-29T01:48:16;9.88;;;5.00;;
59649;SDS011;46162;57.568;25.814;2023-01-29T01:50:49;10.70;;;5.53;;
59649;SDS011;46162;57.568;25.814;2023-01-29T01:53:23;10.63;;;5.43;;
59649;SDS011;46162;57.568;25.814;2023-01-29T01:55:57;8.35;;;5.30;;
59649;SDS011;46162;57.568;25.814;2023-01-29T01:58:31;9.40;;;4.28;;
59649;SDS011;46162;57.568;25.814;2023-01-29T02:01:04;10.52;;;5.13;;
59649;SDS011;46162;57.568;25.814;2023-01-29T02:03:36;12.15;;;4.95;;
59649;SDS011;46162;57.568;25.814;2023-01-29T02:06:27;11.25;;;5.47;;
59649;SDS011;46162;57.568;25.814;2023-01-29T02:09:16;11.65;;;5.30;;
59649;SDS011;46162;57.568;25.814;2023-01-29T02:12:03;10.13;;;5.70;;
59649;SDS011;46162;57.568;25.814;2023-01-29T02:17:06;8.85;;;5.10;;
59649;SDS011;46162;57.568;25.814;2023-01-29T02:19:40;11.73;;;5.40;;
59649;SDS011;46162;57.568;25.814;2023-01-29T02:25:22;11.02;;;5.88;;
59649;SDS011;46162;57.568;25.814;2023-01-29T02:28:24;12.07;;;5.45;;
59649;SDS011;46162;57.568;25.814;2023-01-29T02:30:59;13.35;;;6.50;;
59649;SDS011;46162;57.568;25.814;2023-01-29T02:33:39;11.85;;;6.00;;
59649;SDS011;46162;57.568;25.814;2023-01-29T02:36:17;11.90;;;5.88;;
59649;SDS011;46162;57.568;25.814;2023-01-29T02:38:52;12.23;;;6.43;;
59649;SDS011;46162;57.568;25.814;2023-01-29T02:41:28;11.85;;;6.25;;
59649;SDS011;46162;57.568;25.814;2023-01-29T02:44:04;12.48;;;6.38;;
59649;SDS011;46162;57.568;25.814;2023-01-29T02:46:38;14.52;;;6.97;;
59649;SDS011;46162;57.568;25.814;2023-01-29T02:49:15;11.77;;;6.38;;
59649;SDS011;46162;57.568;25.814;2023-01-29T02:51:52;12.40;;;7.40;;
59649;SDS011;46162;57.568;25.814;2023-01-29T02:54:29;10.68;;;6.30;;
59649;SDS011;46162;57.568;25.814;2023-01-29T02:57:03;13.77;;;7.13;;
59649;SDS011;46162;57.568;25.814;2023-01-29T02:59:44;11.40;;;6.65;;
59649;SDS011;46162;57.568;25.814;2023-01-29T03:02:17;13.38;;;7.30;;
59649;SDS011;46162;57.568;25.814;2023-01-29T03:04:55;14.27;;;7.13;;
59649;SDS011;46162;57.568;25.814;2023-01-29T03:07:30;13.48;;;8.05;;
59649;SDS011;46162;57.568;25.814;2023-01-29T03:10:29;15.45;;;6.93;;
59649;SDS011;46162;57.568;25.814;2023-01-29T03:13:03;13.00;;;7.60;;
59649;SDS011;46162;57.568;25.814;2023-01-29T03:15:39;12.95;;;7.95;;
59649;SDS011;46162;57.568;25.814;2023-01-29T03:18:35;14.82;;;7.88;;
59649;SDS011;46162;57.568;25.814;2023-01-29T03:21:14;13.30;;;7.35;;
59649;SDS011;46162;57.568;25.814;2023-01-29T03:24:05;14.50;;;8.02;;
59649;SDS011;46162;57.568;25.814;2023-01-29T03:26:55;16.30;;;8.20;;
59649;SDS011;46162;57.568;25.814;2023-01-29T03:29:47;12.32;;;6.95;;
59649;SDS011;46162;57.568;25.814;2023-01-29T03:32:48;13.98;;;7.18;;
59649;SDS011;46162;57.568;25.814;2023-01-29T03:35:20;14.98;;;7.88;;
59649;SDS011;46162;57.568;25.814;2023-01-29T03:38:02;14.82;;;8.30;;
59649;SDS011;46162;57.568;25.814;2023-01-29T03:40:34;16.83;;;9.52;;
59649;SDS011;46162;57.568;25.814;2023-01-29T03:43:22;16.60;;;8.07;;
59649;SDS011;46162;57.568;25.814;2023-01-29T03:46:02;16.02;;;8.38;;
59649;SDS011;46162;57.568;25.814;2023-01-29T03:48:36;16.75;;;8.32;;
59649;SDS011;46162;57.568;25.814;2023-01-29T03:51:16;13.55;;;8.20;;
59649;SDS011;46162;57.568;25.814;2023-01-29T03:53:53;14.18;;;7.82;;
59649;SDS011;46162;57.568;25.814;2023-01-29T03:56:31;16.77;;;9.00;;
59649;SDS011;46162;57.568;25.814;2023-01-29T03:59:10;17.27;;;8.80;;
59649;SDS011;46162;57.568;25.814;2023-01-29T04:02:10;12.63;;;7.57;;
59649;SDS011;46162;57.568;25.814;2023-01-29T04:04:58;14.65;;;9.20;;
59649;SDS011;46162;57.568;25.814;2023-01-29T04:07:40;16.10;;;8.98;;
59649;SDS011;46162;57.568;25.814;2023-01-29T04:10:14;14.15;;;7.75;;
59649;SDS011;46162;57.568;25.814;2023-01-29T04:12:46;13.90;;;8.88;;
59649;SDS011;46162;57.568;25.814;2023-01-29T04:15:19;15.02;;;8.65;;
59649;SDS011;46162;57.568;25.814;2023-01-29T04:17:51;15.30;;;8.05;;
59649;SDS011;46162;57.568;25.814;2023-01-29T04:20:33;15.68;;;8.50;;
59649;SDS011;46162;57.568;25.814;2023-01-29T04:23:04;14.20;;;8.88;;
59649;SDS011;46162;57.568;25.814;2023-01-29T04:25:36;13.85;;;8.50;;
59649;SDS011;46162;57.568;25.814;2023-01-29T04:28:16;14.65;;;8.68;;
59649;SDS011;46162;57.568;25.814;2023-01-29T04:30:51;13.80;;;8.35;;
59649;SDS011;46162;57.568;25.814;2023-01-29T04:33:28;15.40;;;8.70;;
59649;SDS011;46162;57.568;25.814;2023-01-29T04:36:09;15.10;;;8.07;;
59649;SDS011;46162;57.568;25.814;2023-01-29T04:38:49;15.40;;;8.18;;
59649;SDS011;46162;57.568;25.814;2023-01-29T04:41:26;12.32;;;7.72;;
59649;SDS011;46162;57.568;25.814;2023-01-29T04:44:02;15.20;;;8.38;;
59649;SDS011;46162;57.568;25.814;2023-01-29T04:46:42;12.57;;;7.43;;
59649;SDS011;46162;57.568;25.814;2023-01-29T04:49:17;12.93;;;8.65;;
59649;SDS011;46162;57.568;25.814;2023-01-29T04:51:59;13.40;;;7.25;;
59649;SDS011;46162;57.568;25.814;2023-01-29T04:54:39;13.50;;;7.80;;
59649;SDS011;46162;57.568;25.814;2023-01-29T04:57:18;12.30;;;7.90;;
59649;SDS011;46162;57.568;25.814;2023-01-29T04:59:56;14.13;;;8.05;;
59649;SDS011;46162;57.568;25.814;2023-01-29T05:02:30;14.48;;;7.80;;
59649;SDS011;46162;57.568;25.814;2023-01-29T05:05:04;17.55;;;9.13;;
59649;SDS011;46162;57.568;25.814;2023-01-29T05:07:36;15.52;;;9.20;;
59649;SDS011;46162;57.568;25.814;2023-01-29T05:10:07;14.85;;;8.80;;
59649;SDS011;46162;57.568;25.814;2023-01-29T05:12:39;15.02;;;8.48;;
59649;SDS011;46162;57.568;25.814;2023-01-29T05:15:18;15.38;;;9.00;;
59649;SDS011;46162;57.568;25.814;2023-01-29T05:17:50;14.80;;;8.52;;
59649;SDS011;46162;57.568;25.814;2023-01-29T05:20:19;13.13;;;9.13;;
59649;SDS011;46162;57.568;25.814;2023-01-29T05:22:50;15.57;;;9.18;;
59649;SDS011;46162;57.568;25.814;2023-01-29T05:25:20;13.95;;;8.65;;
59649;SDS011;46162;57.568;25.814;2023-01-29T05:27:51;14.52;;;9.48;;
59649;SDS011;46162;57.568;25.814;2023-01-29T05:30:32;14.82;;;9.15;;
59649;SDS011;46162;57.568;25.814;2023-01-29T05:33:03;15.85;;;8.88;;
59649;SDS011;46162;57.568;25.814;2023-01-29T05:35:39;15.55;;;9.80;;
59649;SDS011;46162;57.568;25.814;2023-01-29T05:38:13;13.43;;;8.85;;
59649;SDS011;46162;57.568;25.814;2023-01-29T05:40:43;16.73;;;11.02;;
59649;SDS011;46162;57.568;25.814;2023-01-29T05:43:15;15.65;;;10.23;;
59649;SDS011;46162;57.568;25.814;2023-01-29T05:45:50;16.52;;;10.50;;
59649;SDS011;46162;57.568;25.814;2023-01-29T05:48:20;16.15;;;9.73;;
59649;SDS011;46162;57.568;25.814;2023-01-29T05:50:49;15.57;;;9.55;;
59649;SDS011;46162;57.568;25.814;2023-01-29T05:53:20;14.02;;;9.32;;
59649;SDS011;46162;57.568;25.814;2023-01-29T05:55:49;15.40;;;9.13;;
59649;SDS011;46162;57.568;25.814;2023-01-29T05:58:18;15.75;;;9.57;;
59649;SDS011;46162;57.568;25.814;2023-01-29T06:00:46;15.13;;;10.68;;
59649;SDS011;46162;57.568;25.814;2023-01-29T06:03:16;18.08;;;9.73;;
59649;SDS011;46162;57.568;25.814;2023-01-29T06:05:45;14.93;;;9.82;;
59649;SDS011;46162;57.568;25.814;2023-01-29T06:08:15;13.85;;;9.45;;
59649;SDS011;46162;57.568;25.814;2023-01-29T06:10:45;15.48;;;10.50;;
59649;SDS011;46162;57.568;25.814;2023-01-29T06:13:14;18.85;;;10.60;;
59649;SDS011;46162;57.568;25.814;2023-01-29T06:15:44;18.70;;;10.15;;
59649;SDS011;46162;57.568;25.814;2023-01-29T06:18:12;15.90;;;10.05;;
59649;SDS011;46162;57.568;25.814;2023-01-29T06:20:41;17.27;;;9.90;;
59649;SDS011;46162;57.568;25.814;2023-01-29T06:23:10;16.33;;;10.40;;
59649;SDS011;46162;57.568;25.814;2023-01-29T06:25:39;15.60;;;9.90;;
59649;SDS011;46162;57.568;25.814;2023-01-29T06:28:09;18.17;;;10.18;;
59649;SDS011;46162;57.568;25.814;2023-01-29T06:30:41;15.75;;;10.02;;
59649;SDS011;46162;57.568;25.814;2023-01-29T06:33:13;16.95;;;9.40;;
59649;SDS011;46162;57.568;25.814;2023-01-29T06:35:41;17.48;;;10.50;;
59649;SDS011;46162;57.568;25.814;2023-01-29T06:38:10;18.20;;;11.43;;
59649;SDS011;46162;57.568;25.814;2023-01-29T06:40:39;20.13;;;12.10;;
59649;SDS011;46162;57.568;25.814;2023-01-29T06:43:10;15.55;;;10.27;;
59649;SDS011;46162;57.568;25.814;2023-01-29T06:45:44;19.67;;;11.20;;
59649;SDS011;46162;57.568;25.814;2023-01-29T06:48:14;17.95;;;10.25;;
59649;SDS011;46162;57.568;25.814;2023-01-29T06:50:43;16.77;;;10.25;;
59649;SDS011;46162;57.568;25.814;2023-01-29T06:53:12;17.30;;;10.57;;
59649;SDS011;46162;57.568;25.814;2023-01-29T06:55:41;14.95;;;10.15;;
59649;SDS011;46162;57.568;25.814;2023-01-29T06:58:12;16.27;;;9.95;;
59649;SDS011;46162;57.568;25.814;2023-01-29T07:00:41;19.88;;;10.68;;
59649;SDS011;46162;57.568;25.814;2023-01-29T07:03:10;19.17;;;9.77;;
59649;SDS011;46162;57.568;25.814;2023-01-29T07:05:39;17.23;;;10.13;;
59649;SDS011;46162;57.568;25.814;2023-01-29T07:08:08;16.05;;;9.27;;
59649;SDS011;46162;57.568;25.814;2023-01-29T07:10:37;14.52;;;9.60;;
59649;SDS011;46162;57.568;25.814;2023-01-29T07:13:06;17.33;;;9.68;;
59649;SDS011;46162;57.568;25.814;2023-01-29T07:15:36;19.63;;;10.80;;
59649;SDS011;46162;57.568;25.814;2023-01-29T07:18:05;15.73;;;9.77;;
59649;SDS011;46162;57.568;25.814;2023-01-29T07:20:38;14.38;;;8.95;;
59649;SDS011;46162;57.568;25.814;2023-01-29T07:23:08;17.33;;;10.32;;
59649;SDS011;46162;57.568;25.814;2023-01-29T07:28:07;22.42;;;11.52;;
59649;SDS011;46162;57.568;25.814;2023-01-29T07:30:37;18.65;;;10.40;;
59649;SDS011;46162;57.568;25.814;2023-01-29T07:33:07;20.90;;;11.50;;
59649;SDS011;46162;57.568;25.814;2023-01-29T07:35:37;16.83;;;10.43;;
59649;SDS011;46162;57.568;25.814;2023-01-29T07:38:07;17.65;;;10.05;;
59649;SDS011;46162;57.568;25.814;2023-01-29T07:40:37;18.87;;;9.53;;
59649;SDS011;46162;57.568;25.814;2023-01-29T07:43:06;14.85;;;9.70;;
59649;SDS011;46162;57.568;25.814;2023-01-29T07:45:38;15.85;;;9.65;;
59649;SDS011;46162;57.568;25.814;2023-01-29T07:48:09;19.30;;;10.20;;
59649;SDS011;46162;57.568;25.814;2023-01-29T07:53:08;18.55;;;9.40;;
59649;SDS011;46162;57.568;25.814;2023-01-29T07:55:42;16.73;;;9.02;;
59649;SDS011;46162;57.568;25.814;2023-01-29T07:58:12;18.55;;;10.07;;
59649;SDS011;46162;57.568;25.814;2023-01-29T08:00:42;17.67;;;9.68;;
59649;SDS011;46162;57.568;25.814;2023-01-29T08:03:11;15.07;;;10.02;;
59649;SDS011;46162;57.568;25.814;2023-01-29T08:05:42;18.67;;;9.77;;
59649;SDS011;46162;57.568;25.814;2023-01-29T08:08:11;16.75;;;9.55;;
59649;SDS011;46162;57.568;25.814;2023-01-29T08:10:40;16.83;;;10.00;;
59649;SDS011;46162;57.568;25.814;2023-01-29T08:13:09;15.45;;;9.82;;
59649;SDS011;46162;57.568;25.814;2023-01-29T08:15:42;17.42;;;9.68;;
59649;SDS011;46162;57.568;25.814;2023-01-29T08:18:12;17.25;;;10.10;;
59649;SDS011;46162;57.568;25.814;2023-01-29T08:20:42;17.98;;;10.23;;
59649;SDS011;46162;57.568;25.814;2023-01-29T08:23:12;15.32;;;9.45;;
59649;SDS011;46162;57.568;25.814;2023-01-29T08:25:42;16.50;;;10.10;;
59649;SDS011;46162;57.568;25.814;2023-01-29T08:28:11;16.80;;;9.23;;
59649;SDS011;46162;57.568;25.814;2023-01-29T08:30:40;17.90;;;11.40;;
59649;SDS011;46162;57.568;25.814;2023-01-29T08:33:10;18.48;;;10.60;;
59649;SDS011;46162;57.568;25.814;2023-01-29T08:35:39;15.15;;;9.15;;
59649;SDS011;46162;57.568;25.814;2023-01-29T08:38:08;18.40;;;9.57;;
59649;SDS011;46162;57.568;25.814;2023-01-29T08:40:39;16.98;;;9.20;;
59649;SDS011;46162;57.568;25.814;2023-01-29T08:43:09;17.25;;;9.88;;
59649;SDS011;46162;57.568;25.814;2023-01-29T08:45:39;15.45;;;9.70;;
59649;SDS011;46162;57.568;25.814;2023-01-29T08:48:10;15.68;;;9.20;;
59649;SDS011;46162;57.568;25.814;2023-01-29T08:50:40;16.95;;;8.85;;
59649;SDS011;46162;57.568;25.814;2023-01-29T08:53:12;16.25;;;9.55;;
59649;SDS011;46162;57.568;25.814;2023-01-29T08:55:41;16.33;;;8.32;;
59649;SDS011;46162;57.568;25.814;2023-01-29T08:58:10;16.73;;;8.93;;
59649;SDS011;46162;57.568;25.814;2023-01-29T09:00:39;17.23;;;8.85;;
59649;SDS011;46162;57.568;25.814;2023-01-29T09:03:09;17.50;;;10.32;;
59649;SDS011;46162;57.568;25.814;2023-01-29T09:05:38;15.50;;;9.13;;
59649;SDS011;46162;57.568;25.814;2023-01-29T09:08:08;16.80;;;9.82;;
59649;SDS011;46162;57.568;25.814;2023-01-29T09:10:38;14.60;;;9.48;;
59649;SDS011;46162;57.568;25.814;2023-01-29T09:13:06;15.23;;;9.10;;
59649;SDS011;46162;57.568;25.814;2023-01-29T09:15:35;17.08;;;9.88;;
59649;SDS011;46162;57.568;25.814;2023-01-29T09:18:04;15.13;;;9.05;;
59649;SDS011;46162;57.568;25.814;2023-01-29T09:20:34;16.05;;;9.40;;
59649;SDS011;46162;57.568;25.814;2023-01-29T09:23:04;15.23;;;9.45;;
59649;SDS011;46162;57.568;25.814;2023-01-29T09:25:34;14.87;;;9.00;;
59649;SDS011;46162;57.568;25.814;2023-01-29T09:28:03;14.65;;;8.98;;
59649;SDS011;46162;57.568;25.814;2023-01-29T09:30:32;15.35;;;9.63;;
59649;SDS011;46162;57.568;25.814;2023-01-29T09:33:03;16.63;;;9.63;;
59649;SDS011;46162;57.568;25.814;2023-01-29T09:35:34;20.77;;;10.27;;
59649;SDS011;46162;57.568;25.814;2023-01-29T09:38:03;18.50;;;10.55;;
59649;SDS011;46162;57.568;25.814;2023-01-29T09:40:33;15.73;;;9.90;;
59649;SDS011;46162;57.568;25.814;2023-01-29T09:43:10;16.38;;;9.68;;
59649;SDS011;46162;57.568;25.814;2023-01-29T09:45:48;14.13;;;9.15;;
59649;SDS011;46162;57.568;25.814;2023-01-29T09:48:21;17.88;;;10.00;;
59649;SDS011;46162;57.568;25.814;2023-01-29T09:50:53;19.40;;;10.48;;
59649;SDS011;46162;57.568;25.814;2023-01-29T09:53:26;18.77;;;10.30;;
59649;SDS011;46162;57.568;25.814;2023-01-29T09:56:03;18.00;;;10.50;;
59649;SDS011;46162;57.568;25.814;2023-01-29T09:58:36;20.65;;;10.10;;
59649;SDS011;46162;57.568;25.814;2023-01-29T10:01:09;18.55;;;10.10;;
59649;SDS011;46162;57.568;25.814;2023-01-29T10:06:55;18.33;;;10.95;;
59649;SDS011;46162;57.568;25.814;2023-01-29T10:09:53;17.60;;;9.60;;
59649;SDS011;46162;57.568;25.814;2023-01-29T10:12:45;17.13;;;9.43;;
59649;SDS011;46162;57.568;25.814;2023-01-29T10:15:28;15.65;;;8.63;;
59649;SDS011;46162;57.568;25.814;2023-01-29T10:21:27;19.95;;;9.73;;
59649;SDS011;46162;57.568;25.814;2023-01-29T10:24:14;17.02;;;9.40;;
59649;SDS011;46162;57.568;25.814;2023-01-29T10:26:51;19.20;;;9.98;;
59649;SDS011;46162;57.568;25.814;2023-01-29T10:29:19;17.98;;;10.23;;
59649;SDS011;46162;57.568;25.814;2023-01-29T10:31:49;19.10;;;11.80;;
59649;SDS011;46162;57.568;25.814;2023-01-29T10:34:23;23.02;;;11.30;;
59649;SDS011;46162;57.568;25.814;2023-01-29T10:36:58;21.60;;;12.55;;
59649;SDS011;46162;57.568;25.814;2023-01-29T10:39:29;19.30;;;11.25;;
59649;SDS011;46162;57.568;25.814;2023-01-29T10:42:01;19.63;;;10.25;;
59649;SDS011;46162;57.568;25.814;2023-01-29T10:44:42;21.77;;;10.60;;
59649;SDS011;46162;57.568;25.814;2023-01-29T10:47:22;20.70;;;11.35;;
59649;SDS011;46162;57.568;25.814;2023-01-29T10:50:22;19.88;;;10.98;;
59649;SDS011;46162;57.568;25.814;2023-01-29T10:53:07;15.73;;;9.00;;
59649;SDS011;46162;57.568;25.814;2023-01-29T10:55:52;19.55;;;11.20;;
59649;SDS011;46162;57.568;25.814;2023-01-29T10:58:48;20.15;;;10.95;;
59649;SDS011;46162;57.568;25.814;2023-01-29T11:01:19;21.00;;;11.55;;
59649;SDS011;46162;57.568;25.814;2023-01-29T11:03:51;23.02;;;11.68;;
59649;SDS011;46162;57.568;25.814;2023-01-29T11:06:26;19.25;;;10.93;;
59649;SDS011;46162;57.568;25.814;2023-01-29T11:08:58;22.58;;;12.68;;
59649;SDS011;46162;57.568;25.814;2023-01-29T11:11:38;20.83;;;11.80;;
59649;SDS011;46162;57.568;25.814;2023-01-29T11:14:11;19.33;;;10.68;;
59649;SDS011;46162;57.568;25.814;2023-01-29T11:16:44;22.08;;;11.38;;
59649;SDS011;46162;57.568;25.814;2023-01-29T11:21:49;20.92;;;11.13;;
59649;SDS011;46162;57.568;25.814;2023-01-29T11:24:20;20.63;;;11.38;;
59649;SDS011;46162;57.568;25.814;2023-01-29T11:26:51;20.75;;;12.55;;
59649;SDS011;46162;57.568;25.814;2023-01-29T11:29:38;21.30;;;11.85;;
59649;SDS011;46162;57.568;25.814;2023-01-29T11:32:11;20.75;;;10.88;;
59649;SDS011;46162;57.568;25.814;2023-01-29T11:35:00;17.60;;;10.48;;
59649;SDS011;46162;57.568;25.814;2023-01-29T11:37:32;20.40;;;11.32;;
59649;SDS011;46162;57.568;25.814;2023-01-29T11:43:11;19.42;;;10.90;;
59649;SDS011;46162;57.568;25.814;2023-01-29T11:45:55;17.73;;;10.45;;
59649;SDS011;46162;57.568;25.814;2023-01-29T11:48:32;18.95;;;10.55;;
59649;SDS011;46162;57.568;25.814;2023-01-29T11:51:09;18.65;;;9.65;;
59649;SDS011;46162;57.568;25.814;2023-01-29T11:53:48;19.17;;;11.07;;
59649;SDS011;46162;57.568;25.814;2023-01-29T11:56:20;21.10;;;10.70;;
59649;SDS011;46162;57.568;25.814;2023-01-29T11:58:55;17.77;;;9.57;;
59649;SDS011;46162;57.568;25.814;2023-01-29T12:01:29;18.65;;;11.20;;
59649;SDS011;46162;57.568;25.814;2023-01-29T12:04:02;17.17;;;10.00;;
59649;SDS011;46162;57.568;25.814;2023-01-29T12:06:41;19.00;;;9.68;;
59649;SDS011;46162;57.568;25.814;2023-01-29T12:09:15;17.20;;;10.00;;
59649;SDS011;46162;57.568;25.814;2023-01-29T12:11:46;18.02;;;9.30;;
59649;SDS011;46162;57.568;25.814;2023-01-29T12:14:25;18.65;;;10.90;;
59649;SDS011;46162;57.568;25.814;2023-01-29T12:17:00;18.70;;;10.98;;
59649;SDS011;46162;57.568;25.814;2023-01-29T12:19:33;19.58;;;10.55;;
59649;SDS011;46162;57.568;25.814;2023-01-29T12:22:09;21.13;;;11.93;;
59649;SDS011;46162;57.568;25.814;2023-01-29T12:24:44;21.10;;;11.07;;
59649;SDS011;46162;57.568;25.814;2023-01-29T12:27:21;21.98;;;11.45;;
59649;SDS011;46162;57.568;25.814;2023-01-29T12:29:56;24.55;;;13.63;;
59649;SDS011;46162;57.568;25.814;2023-01-29T12:32:34;22.95;;;12.35;;
59649;SDS011;46162;57.568;25.814;2023-01-29T12:35:12;19.55;;;10.98;;
59649;SDS011;46162;57.568;25.814;2023-01-29T12:37:47;22.05;;;11.65;;
59649;SDS011;46162;57.568;25.814;2023-01-29T12:40:23;19.50;;;10.40;;
59649;SDS011;46162;57.568;25.814;2023-01-29T12:42:57;19.83;;;11.18;;
59649;SDS011;46162;57.568;25.814;2023-01-29T12:45:32;19.83;;;10.80;;
59649;SDS011;46162;57.568;25.814;2023-01-29T12:48:05;21.02;;;12.00;;
59649;SDS011;46162;57.568;25.814;2023-01-29T12:50:37;22.38;;;10.43;;
59649;SDS011;46162;57.568;25.814;2023-01-29T12:53:06;19.80;;;10.25;;
59649;SDS011;46162;57.568;25.814;2023-01-29T12:55:45;19.40;;;10.50;;
59649;SDS011;46162;57.568;25.814;2023-01-29T12:58:21;18.88;;;9.48;;
59649;SDS011;46162;57.568;25.814;2023-01-29T13:00:59;18.23;;;10.90;;
59649;SDS011;46162;57.568;25.814;2023-01-29T13:03:37;20.98;;;10.93;;
59649;SDS011;46162;57.568;25.814;2023-01-29T13:06:17;20.67;;;10.63;;
59649;SDS011;46162;57.568;25.814;2023-01-29T13:08:50;21.17;;;9.80;;
59649;SDS011;46162;57.568;25.814;2023-01-29T13:11:23;17.88;;;10.73;;
59649;SDS011;46162;57.568;25.814;2023-01-29T13:13:55;18.63;;;10.52;;
59649;SDS011;46162;57.568;25.814;2023-01-29T13:16:30;19.33;;;10.82;;
59649;SDS011;46162;57.568;25.814;2023-01-29T13:19:05;18.60;;;11.00;;
59649;SDS011;46162;57.568;25.814;2023-01-29T13:21:41;19.80;;;11.13;;
59649;SDS011;46162;57.568;25.814;2023-01-29T13:24:12;21.52;;;12.02;;
59649;SDS011;46162;57.568;25.814;2023-01-29T13:26:43;23.90;;;11.45;;
59649;SDS011;46162;57.568;25.814;2023-01-29T13:29:19;20.50;;;12.32;;
59649;SDS011;46162;57.568;25.814;2023-01-29T13:31:51;24.02;;;12.82;;
59649;SDS011;46162;57.568;25.814;2023-01-29T13:34:21;22.77;;;12.50;;
59649;SDS011;46162;57.568;25.814;2023-01-29T13:36:52;23.35;;;12.35;;
59649;SDS011;46162;57.568;25.814;2023-01-29T13:39:26;21.60;;;12.13;;
59649;SDS011;46162;57.568;25.814;2023-01-29T13:41:58;24.20;;;14.00;;
59649;SDS011;46162;57.568;25.814;2023-01-29T13:44:28;24.33;;;13.25;;
59649;SDS011;46162;57.568;25.814;2023-01-29T13:47:02;25.15;;;14.13;;
59649;SDS011;46162;57.568;25.814;2023-01-29T13:49:33;23.95;;;12.63;;
59649;SDS011;46162;57.568;25.814;2023-01-29T13:52:13;24.13;;;13.00;;
59649;SDS011;46162;57.568;25.814;2023-01-29T13:54:51;24.80;;;13.93;;
59649;SDS011;46162;57.568;25.814;2023-01-29T14:06:49;23.13;;;13.15;;
59649;SDS011;46162;57.568;25.814;2023-01-29T14:12:38;24.30;;;11.95;;
59649;SDS011;46162;57.568;25.814;2023-01-29T14:15:16;23.15;;;11.90;;
59649;SDS011;46162;57.568;25.814;2023-01-29T14:18:03;23.83;;;12.98;;
59649;SDS011;46162;57.568;25.814;2023-01-29T14:20:51;23.42;;;12.57;;
59649;SDS011;46162;57.568;25.814;2023-01-29T14:23:27;24.50;;;12.98;;
59649;SDS011;46162;57.568;25.814;2023-01-29T14:26:02;24.20;;;13.18;;
59649;SDS011;46162;57.568;25.814;2023-01-29T14:28:33;26.88;;;13.32;;
59649;SDS011;46162;57.568;25.814;2023-01-29T14:31:02;27.00;;;13.77;;
59649;SDS011;46162;57.568;25.814;2023-01-29T14:33:34;24.40;;;13.15;;
59649;SDS011;46162;57.568;25.814;2023-01-29T14:36:10;24.17;;;13.80;;
59649;SDS011;46162;57.568;25.814;2023-01-29T14:38:44;22.92;;;12.63;;
59649;SDS011;46162;57.568;25.814;2023-01-29T14:41:19;24.35;;;13.45;;
59649;SDS011;46162;57.568;25.814;2023-01-29T14:46:54;23.17;;;12.65;;
59649;SDS011;46162;57.568;25.814;2023-01-29T14:52:23;24.02;;;12.05;;
59649;SDS011;46162;57.568;25.814;2023-01-29T14:54:59;21.95;;;11.98;;
59649;SDS011;46162;57.568;25.814;2023-01-29T14:57:34;23.02;;;12.30;;
59649;SDS011;46162;57.568;25.814;2023-01-29T15:00:05;22.40;;;12.13;;
59649;SDS011;46162;57.568;25.814;2023-01-29T15:02:44;23.95;;;11.80;;
59649;SDS011;46162;57.568;25.814;2023-01-29T15:05:16;22.92;;;11.63;;
59649;SDS011;46162;57.568;25.814;2023-01-29T15:07:50;24.90;;;11.43;;
59649;SDS011;46162;57.568;25.814;2023-01-29T15:10:36;21.35;;;11.45;;
59649;SDS011;46162;57.568;25.814;2023-01-29T15:13:12;22.73;;;11.32;;
59649;SDS011;46162;57.568;25.814;2023-01-29T15:15:48;22.63;;;12.00;;
59649;SDS011;46162;57.568;25.814;2023-01-29T15:18:22;23.67;;;12.80;;
59649;SDS011;46162;57.568;25.814;2023-01-29T15:21:00;22.45;;;12.45;;
59649;SDS011;46162;57.568;25.814;2023-01-29T15:23:33;23.45;;;12.70;;
59649;SDS011;46162;57.568;25.814;2023-01-29T15:26:02;26.47;;;13.47;;
59649;SDS011;46162;57.568;25.814;2023-01-29T15:28:33;23.55;;;12.63;;
59649;SDS011;46162;57.568;25.814;2023-01-29T15:31:03;24.20;;;13.25;;
59649;SDS011;46162;57.568;25.814;2023-01-29T15:33:35;29.02;;;13.98;;
59649;SDS011;46162;57.568;25.814;2023-01-29T15:36:05;28.50;;;14.00;;